Broen, Sweden

5:00 PM CET on February 07, 2016 (GMT +0100)
Eftra 2 | | Change Station
CLOSE
Current Station
Personal Weather Station
Location: Eftra, HALLANDS LäN
Elevation: 138 ft
Nearby Weather Stations

Elev 138 ft 56.86 °N, 12.65 °E | Updated 13 seconds ago

Mostly Cloudy
Mostly Cloudy
45.1 °F
Feels Like 45 °F
N
0.0
Wind Variable Wind from North
Gusts 0.0 mph

Today
High -- | Low -- °F
--% Chance of Precip.
Yesterday
High -- | Low -- °F
Precip. -- in
Pressure 29.39 in
Visibility 6.2 miles
Clouds Mostly Cloudy 2800 ft
Windchill 45 °F
Dew Point 39 °F
Humidity 78%
Rainfall 0.00 in
Snow Depth Not available.
7:56 AM 4:50 PM
Waning Crescent, 1% visible
METAR ESMT 071550Z 18016KT 9999 BKN028 07/03 Q0995
Pressure 29.39 in
Visibility 6.2 miles
Clouds Mostly Cloudy 2800 ft
Windchill 45 °F
Dew Point 39 °F
Humidity 78%
Rainfall 0.00 in
Snow Depth Not available.
7:56 AM 4:50 PM
Waning Crescent, 1% visible
METAR ESMT 071550Z 18016KT 9999 BKN028 07/03 Q0995

10-Day Weather Forecast

Almanac

Astronomy

Feb. 07, 2016 Rise Set
Actual Time
Civil Twilight
Nautical Twilight
Astronomical Twilight
Moon
Length of Visible Light
Length of Day
Tomorrow will be .
, % of the Moon is Illuminated

Today's Extremes

Country Highs Country Lows

Community

WunderPhotos

Upload Photos

1,891,216 photos uploaded!

WunderBlog® & News

Nearby

Air Quality

  Air Quality AQ Index Pollutant
Not available.

Snow Depth

Station Depth Elevation

Earthquake Activity

City Distance Mag. Time & Date
Minimum magnitude displayed is 2.5.

Coastal Water Temperatures

Place Temperature

Stations

Nearby Weather Stations

Station Location Temp. Windchill Dew Point Humidity Wind Precip. Elev Updated Type